createdAt,value
2018-12-13T00:00:34.498Z,101262.02
2018-12-13T00:03:02.208Z,101261.02
2018-12-13T00:05:29.663Z,101264.66
2018-12-13T00:07:57.335Z,101254.89
2018-12-13T00:10:24.943Z,101252.26
2018-12-13T00:12:52.331Z,101249.12
2018-12-13T00:15:25.605Z,101249.55
2018-12-13T00:18:22.148Z,101239.80
2018-12-13T00:20:49.539Z,101250.78
2018-12-13T00:23:16.860Z,101246.48
2018-12-13T00:25:44.546Z,101253.73
2018-12-13T00:28:12.082Z,101245.44
2018-12-13T00:30:40.014Z,101242.30
2018-12-13T00:33:07.602Z,101244.14
2018-12-13T00:35:35.060Z,101233.10
2018-12-13T00:38:02.732Z,101239.70
2018-12-13T00:40:30.658Z,101232.98
2018-12-13T00:42:58.116Z,101230.42
2018-12-13T00:45:25.467Z,101227.25
2018-12-13T00:47:53.203Z,101227.00
2018-12-13T00:50:20.924Z,101235.82
2018-12-13T00:52:48.672Z,101229.73
2018-12-13T00:55:16.436Z,101224.54
2018-12-13T00:57:44.119Z,101222.50
2018-12-13T01:00:11.944Z,101219.06
2018-12-13T01:02:39.728Z,101219.56
2018-12-13T01:05:07.511Z,101214.01
2018-12-13T01:07:35.272Z,101217.13
2018-12-13T01:10:02.888Z,101214.87
2018-12-13T01:12:30.532Z,101221.86
2018-12-13T01:14:58.186Z,101216.30
2018-12-13T01:17:25.776Z,101216.11
2018-12-13T01:19:53.325Z,101221.70
2018-12-13T01:22:21.023Z,101216.91
2018-12-13T01:24:48.568Z,101213.11
2018-12-13T01:27:16.471Z,101212.58
2018-12-13T01:29:44.213Z,101214.78
2018-12-13T01:32:11.870Z,101207.53
2018-12-13T01:34:39.435Z,101209.63
2018-12-13T01:37:07.021Z,101213.16
2018-12-13T01:39:34.499Z,101217.01
2018-12-13T01:42:02.173Z,101205.09
2018-12-13T01:44:29.734Z,101200.18
2018-12-13T01:46:57.079Z,101199.74
2018-12-13T01:49:24.703Z,101198.73
2018-12-13T01:51:52.114Z,101199.20
2018-12-13T01:54:19.767Z,101203.85
2018-12-13T01:56:47.218Z,101201.52
2018-12-13T01:59:14.795Z,101192.98
2018-12-13T02:01:42.515Z,101182.25
2018-12-13T02:04:10.120Z,101195.20
2018-12-13T02:09:40.000Z,101188.38
2018-12-13T02:12:07.690Z,101187.23
2018-12-13T02:14:35.328Z,101190.89
2018-12-13T02:17:02.820Z,101181.59
2018-12-13T02:19:30.530Z,101185.14
2018-12-13T02:21:58.132Z,101184.49
2018-12-13T02:24:25.776Z,101183.22
2018-12-13T02:26:53.467Z,101187.17
2018-12-13T02:29:21.280Z,101182.27
2018-12-13T02:31:48.993Z,101181.73
2018-12-13T02:34:16.660Z,101181.61
2018-12-13T02:36:44.381Z,101178.59
2018-12-13T02:39:12.123Z,101175.41
2018-12-13T02:41:39.846Z,101172.74
2018-12-13T02:44:07.200Z,101171.17
2018-12-13T02:46:34.870Z,101171.19
2018-12-13T02:49:08.546Z,101168.86
2018-12-13T02:51:36.407Z,101176.85
2018-12-13T02:54:04.169Z,101174.20
2018-12-13T02:56:32.235Z,101172.00
2018-12-13T02:58:59.781Z,101173.25
2018-12-13T03:01:27.333Z,101172.06
2018-12-13T03:03:54.869Z,101171.11
2018-12-13T03:06:22.582Z,101167.27
2018-12-13T03:08:50.273Z,101165.16
2018-12-13T03:11:17.966Z,101165.27
2018-12-13T03:13:45.535Z,101171.84
2018-12-13T03:16:12.918Z,101162.19
2018-12-13T03:18:40.719Z,101162.69
2018-12-13T03:21:08.571Z,101152.34
2018-12-13T03:23:36.499Z,101150.32
2018-12-13T03:26:04.043Z,101144.63
2018-12-13T03:28:31.579Z,101137.70
2018-12-13T03:30:59.071Z,101141.09
2018-12-13T03:33:26.743Z,101145.27
2018-12-13T03:35:54.229Z,101135.31
2018-12-13T03:38:21.879Z,101136.22
2018-12-13T03:40:49.575Z,101128.94
2018-12-13T03:43:17.269Z,101129.05
2018-12-13T03:45:44.802Z,101127.22
2018-12-13T03:48:12.420Z,101121.42
2018-12-13T03:50:39.900Z,101129.42
2018-12-13T03:53:07.857Z,101125.81
2018-12-13T03:55:35.309Z,101114.36
2018-12-13T03:58:04.255Z,101116.16
2018-12-13T04:00:31.808Z,101111.11
2018-12-13T04:02:59.485Z,101106.41
2018-12-13T04:05:27.161Z,101102.83
2018-12-13T04:07:54.807Z,101105.07
2018-12-13T04:10:22.439Z,101113.65
2018-12-13T04:12:50.027Z,101103.02
2018-12-13T04:15:17.605Z,101100.91
2018-12-13T04:17:45.009Z,101097.56
2018-12-13T04:20:12.798Z,101097.38
2018-12-13T04:22:40.487Z,101089.86
2018-12-13T04:25:08.167Z,101090.00
2018-12-13T04:27:35.735Z,101099.28
2018-12-13T04:30:04.593Z,101100.33
2018-12-13T04:32:32.216Z,101097.05
2018-12-13T04:35:00.067Z,101092.51
2018-12-13T04:37:34.986Z,101097.81
2018-12-13T04:39:57.264Z,101100.56
2018-12-13T04:42:24.926Z,101109.13
2018-12-13T04:44:52.587Z,101104.74
2018-12-13T04:47:20.211Z,101105.02
2018-12-13T04:49:47.943Z,101103.62
2018-12-13T04:52:15.723Z,101100.27
2018-12-13T04:54:43.496Z,101103.19
2018-12-13T04:57:11.219Z,101101.29
2018-12-13T04:59:38.655Z,101099.06
2018-12-13T05:02:06.318Z,101094.68
2018-12-13T05:04:33.927Z,101094.08
2018-12-13T05:07:01.532Z,101096.80
2018-12-13T05:09:28.999Z,101090.45
2018-12-13T05:11:56.683Z,101089.77
2018-12-13T05:14:24.361Z,101086.54
2018-12-13T05:16:52.231Z,101088.76
2018-12-13T05:19:19.725Z,101090.48
2018-12-13T05:21:47.279Z,101086.75
2018-12-13T05:24:15.017Z,101091.25
2018-12-13T05:26:42.587Z,101087.80
2018-12-13T05:29:10.247Z,101088.95
2018-12-13T05:31:37.804Z,101078.59
2018-12-13T05:34:05.279Z,101084.81
2018-12-13T05:36:32.920Z,101092.18
2018-12-13T05:39:00.496Z,101085.55
2018-12-13T05:41:28.027Z,101082.89
2018-12-13T05:43:55.679Z,101092.09
2018-12-13T05:46:26.100Z,101079.30
2018-12-13T05:48:54.594Z,101079.03
2018-12-13T05:51:22.340Z,101075.42
2018-12-13T05:53:49.842Z,101079.30
2018-12-13T05:56:17.541Z,101079.23
2018-12-13T05:58:49.311Z,101074.88
2018-12-13T06:01:16.976Z,101069.17
2018-12-13T06:03:44.631Z,101067.41
2018-12-13T06:06:12.344Z,101072.75
2018-12-13T06:08:39.911Z,101062.38
2018-12-13T06:11:07.573Z,101063.66
2018-12-13T06:13:35.107Z,101068.88
2018-12-13T06:16:02.815Z,101072.68
2018-12-13T06:18:30.415Z,101070.02
2018-12-13T06:20:57.805Z,101065.23
2018-12-13T06:23:25.357Z,101060.58
2018-12-13T06:25:53.041Z,101058.44
2018-12-13T06:28:20.524Z,101053.91
2018-12-13T06:30:48.211Z,101060.98
2018-12-13T06:33:15.559Z,101053.09
2018-12-13T06:35:45.719Z,101053.78
2018-12-13T06:38:13.303Z,101053.17
2018-12-13T06:40:40.884Z,101050.66
2018-12-13T06:43:08.560Z,101057.27
2018-12-13T06:45:35.900Z,101056.14
2018-12-13T06:48:03.684Z,101058.47
2018-12-13T06:50:31.081Z,101060.56
2018-12-13T06:52:58.713Z,101063.16
2018-12-13T06:55:26.322Z,101065.58
2018-12-13T06:57:54.003Z,101064.52
2018-12-13T07:00:21.865Z,101072.52
2018-12-13T07:02:49.646Z,101070.19
2018-12-13T07:05:17.348Z,101068.88
2018-12-13T07:07:46.764Z,101075.84
2018-12-13T07:10:15.714Z,101081.66
2018-12-13T07:12:43.155Z,101075.28
2018-12-13T07:15:10.704Z,101083.42
2018-12-13T07:17:38.292Z,101087.20
2018-12-13T07:20:06.121Z,101083.57
2018-12-13T07:22:33.786Z,101078.63
2018-12-13T07:25:01.577Z,101082.45
2018-12-13T07:27:29.225Z,101076.78
2018-12-13T07:29:57.019Z,101073.89
2018-12-13T07:32:24.656Z,101073.42
2018-12-13T07:34:52.309Z,101078.97
2018-12-13T07:37:20.016Z,101080.80
2018-12-13T07:39:47.602Z,101087.14
2018-12-13T07:42:15.204Z,101083.42
2018-12-13T07:44:42.874Z,101084.78
2018-12-13T07:47:10.647Z,101083.48
2018-12-13T07:49:38.284Z,101083.85
2018-12-13T07:52:05.805Z,101079.87
2018-12-13T07:54:40.299Z,101083.48
2018-12-13T07:57:07.774Z,101087.58
2018-12-13T07:59:35.331Z,101089.83
2018-12-13T08:02:03.091Z,101085.48
2018-12-13T08:04:30.676Z,101082.95
2018-12-13T08:06:58.256Z,101086.86
2018-12-13T08:09:25.899Z,101086.88
2018-12-13T08:11:53.498Z,101086.86
2018-12-13T08:14:21.234Z,101089.75
2018-12-13T08:16:48.811Z,101090.25
2018-12-13T08:19:16.844Z,101081.35
2018-12-13T08:21:44.503Z,101078.91
2018-12-13T08:24:12.228Z,101085.53
2018-12-13T08:26:40.171Z,101088.02
2018-12-13T08:29:07.733Z,101091.37
2018-12-13T08:31:35.317Z,101088.88
2018-12-13T08:34:03.057Z,101092.09
2018-12-13T08:36:30.810Z,101093.67
2018-12-13T08:38:58.252Z,101083.91
2018-12-13T08:41:25.887Z,101086.97
2018-12-13T08:43:53.192Z,101081.84
2018-12-13T08:46:20.828Z,101089.44
2018-12-13T08:48:48.412Z,101091.89
2018-12-13T08:51:15.986Z,101087.45
2018-12-13T08:53:43.668Z,101089.53
2018-12-13T08:56:11.284Z,101091.63
2018-12-13T08:58:38.836Z,101093.40
2018-12-13T09:01:06.462Z,101080.85
2018-12-13T09:03:34.164Z,101079.80
2018-12-13T09:06:01.593Z,101091.05
2018-12-13T09:08:33.601Z,101081.80
2018-12-13T09:10:59.111Z,101080.27
2018-12-13T09:13:26.666Z,101076.52
2018-12-13T09:15:54.506Z,101076.92
2018-12-13T09:18:22.084Z,101077.16
2018-12-13T09:20:49.779Z,101076.44
2018-12-13T09:23:17.543Z,101083.84
2018-12-13T09:25:44.950Z,101078.60
2018-12-13T09:28:12.518Z,101076.23
2018-12-13T09:30:39.888Z,101079.27
2018-12-13T09:33:09.651Z,101076.86
2018-12-13T09:35:38.623Z,101078.08
2018-12-13T09:38:06.405Z,101072.72
2018-12-13T09:40:34.029Z,101070.58
2018-12-13T09:43:01.696Z,101070.02
2018-12-13T09:45:29.290Z,101063.59
2018-12-13T09:47:56.977Z,101068.40
2018-12-13T09:50:24.491Z,101063.03
2018-12-13T09:52:52.311Z,101059.41
2018-12-13T09:55:20.096Z,101054.95
2018-12-13T09:57:47.695Z,101045.41
2018-12-13T10:00:15.661Z,101042.98
2018-12-13T10:02:43.495Z,101050.66
2018-12-13T10:05:11.065Z,101036.14
2018-12-13T10:07:38.501Z,101037.09
2018-12-13T10:10:06.113Z,101029.59
2018-12-13T10:12:33.631Z,101034.27
2018-12-13T10:15:01.377Z,101014.16
2018-12-13T10:17:29.272Z,101023.52
2018-12-13T10:19:56.839Z,101011.88
2018-12-13T10:22:24.685Z,101010.92
2018-12-13T10:24:52.285Z,101002.48
2018-12-13T10:27:19.857Z,101006.73
2018-12-13T10:29:47.503Z,101010.19
2018-12-13T10:32:16.125Z,101001.30
2018-12-13T10:34:43.729Z,101001.89
2018-12-13T10:37:11.521Z,100994.69
2018-12-13T10:39:39.030Z,100991.75
2018-12-13T10:42:06.783Z,100991.23
2018-12-13T10:44:35.836Z,100990.02
2018-12-13T10:47:04.306Z,100986.05
2018-12-13T10:49:31.742Z,100988.53
2018-12-13T10:51:59.457Z,100979.80
2018-12-13T10:54:27.127Z,100984.05
2018-12-13T10:56:54.745Z,100979.02
2018-12-13T10:59:22.261Z,100986.37
2018-12-13T11:01:55.734Z,100987.03
2018-12-13T11:04:23.411Z,100981.85
2018-12-13T11:06:50.978Z,100985.11
2018-12-13T11:09:18.732Z,100988.34
2018-12-13T11:11:48.150Z,100976.66
2018-12-13T11:14:18.553Z,100985.58
2018-12-13T11:16:46.152Z,100980.69
2018-12-13T11:19:13.920Z,100975.97
2018-12-13T11:21:41.788Z,100979.16
2018-12-13T11:24:09.426Z,100968.14
2018-12-13T11:26:37.284Z,100970.58
2018-12-13T11:29:42.061Z,100970.30
2018-12-13T11:32:11.629Z,100960.15
2018-12-13T11:34:39.329Z,100968.40
2018-12-13T11:37:07.092Z,100961.72
2018-12-13T11:39:34.712Z,100954.91
2018-12-13T11:42:02.574Z,100956.98
2018-12-13T11:44:30.129Z,100951.53
2018-12-13T11:46:57.844Z,100946.42
2018-12-13T11:49:25.400Z,100943.77
2018-12-13T11:51:53.235Z,100942.68
2018-12-13T11:54:33.712Z,100953.88
2018-12-13T11:57:01.236Z,100938.30
2018-12-13T11:59:28.967Z,100931.62
2018-12-13T12:01:56.464Z,100937.57
2018-12-13T12:04:24.028Z,100935.37
2018-12-13T12:06:51.634Z,100937.34
2018-12-13T12:09:19.191Z,100939.91
2018-12-13T12:11:47.062Z,100929.72
2018-12-13T12:14:14.682Z,100931.52
2018-12-13T12:16:42.293Z,100931.68
2018-12-13T12:19:10.002Z,100928.42
2018-12-13T12:21:37.590Z,100919.65
2018-12-13T12:24:05.300Z,100918.98
2018-12-13T12:26:33.022Z,100913.02
2018-12-13T12:29:00.747Z,100914.83
2018-12-13T12:31:28.389Z,100909.17
2018-12-13T12:33:56.129Z,100901.53
2018-12-13T12:36:23.843Z,100897.09
2018-12-13T12:38:51.187Z,100898.63
2018-12-13T12:41:18.809Z,100897.78
2018-12-13T12:43:46.628Z,100900.39
2018-12-13T12:46:14.241Z,100901.30
2018-12-13T12:48:42.087Z,100895.23
2018-12-13T12:51:09.705Z,100908.05
2018-12-13T12:53:37.085Z,100902.56
2018-12-13T12:56:05.442Z,100904.47
2018-12-13T12:58:33.031Z,100888.03
2018-12-13T13:01:00.813Z,100894.86
2018-12-13T13:03:28.401Z,100890.30
2018-12-13T13:05:55.905Z,100892.53
2018-12-13T13:08:23.576Z,100884.70
2018-12-13T13:10:51.219Z,100894.13
2018-12-13T13:13:18.991Z,100902.11
2018-12-13T13:15:46.717Z,100884.33
2018-12-13T13:18:14.883Z,100878.44
2018-12-13T13:20:42.427Z,100885.19
2018-12-13T13:23:10.249Z,100877.64
2018-12-13T13:25:37.711Z,100874.74
2018-12-13T13:28:05.332Z,100874.89
2018-12-13T13:30:33.073Z,100875.54
2018-12-13T13:33:00.997Z,100875.30
2018-12-13T13:35:28.611Z,100870.73
2018-12-13T13:37:56.288Z,100871.86
2018-12-13T13:40:23.951Z,100865.61
2018-12-13T13:42:51.637Z,100864.31
2018-12-13T13:45:19.964Z,100873.28
2018-12-13T13:47:47.672Z,100869.23
2018-12-13T13:50:15.326Z,100864.15
2018-12-13T13:52:43.132Z,100862.14
2018-12-13T13:55:10.908Z,100863.50
2018-12-13T13:57:38.605Z,100856.98
2018-12-13T14:00:06.698Z,100856.83
2018-12-13T14:02:34.736Z,100869.86
2018-12-13T14:05:02.890Z,100866.55
2018-12-13T14:07:30.442Z,100861.51
2018-12-13T14:09:58.176Z,100866.55
2018-12-13T14:12:25.696Z,100878.59
2018-12-13T14:14:53.418Z,100872.55
2018-12-13T14:17:21.074Z,100883.44
2018-12-13T14:19:48.728Z,100877.77
2018-12-13T14:22:16.405Z,100873.70
2018-12-13T14:24:44.014Z,100901.38
2018-12-13T14:27:11.920Z,100890.07
2018-12-13T14:29:39.521Z,100876.47
2018-12-13T14:32:07.095Z,100877.05
2018-12-13T14:34:34.764Z,100870.70
2018-12-13T14:37:02.687Z,100880.91
2018-12-13T14:39:30.535Z,100878.38
2018-12-13T14:41:58.271Z,100881.42
2018-12-13T14:44:25.937Z,100891.42
2018-12-13T14:46:53.563Z,100879.72
2018-12-13T14:49:20.900Z,100888.37
2018-12-13T14:51:48.518Z,100896.43
2018-12-13T14:54:16.214Z,100890.17
2018-12-13T14:56:44.516Z,100891.37
2018-12-13T14:59:12.133Z,100883.89
2018-12-13T15:01:39.978Z,100899.94
2018-12-13T15:04:07.593Z,100897.34
2018-12-13T15:06:35.134Z,100896.77
2018-12-13T15:09:04.381Z,100901.39
2018-12-13T15:11:31.973Z,100896.43
2018-12-13T15:13:59.612Z,100903.46
2018-12-13T15:16:27.305Z,100907.75
2018-12-13T15:18:55.053Z,100911.02
2018-12-13T15:21:22.820Z,100911.36
2018-12-13T15:23:50.499Z,100903.08
2018-12-13T15:26:18.088Z,100904.80
2018-12-13T15:28:45.716Z,100905.23
2018-12-13T15:31:13.347Z,100895.61
2018-12-13T15:33:41.064Z,100906.34
2018-12-13T15:36:08.789Z,100907.20
2018-12-13T15:38:36.419Z,100905.05
2018-12-13T15:41:04.151Z,100912.80
2018-12-13T15:43:31.762Z,100906.02
2018-12-13T15:45:59.146Z,100901.91
2018-12-13T15:48:26.797Z,100905.09
2018-12-13T15:50:54.168Z,100911.08
2018-12-13T15:53:21.789Z,100908.61
2018-12-13T15:55:49.409Z,100915.51
2018-12-13T15:58:17.173Z,100914.64
2018-12-13T16:00:44.878Z,100915.80
2018-12-13T16:03:12.530Z,100915.07
2018-12-13T16:05:39.876Z,100919.22
2018-12-13T16:08:07.719Z,100912.71
2018-12-13T16:10:35.495Z,100913.44
2018-12-13T16:13:03.162Z,100914.78
2018-12-13T16:15:30.933Z,100915.17
2018-12-13T16:17:58.308Z,100911.90
2018-12-13T16:20:25.927Z,100902.55
2018-12-13T16:22:53.392Z,100905.88
2018-12-13T16:25:21.115Z,100906.31
2018-12-13T16:27:48.827Z,100911.65
2018-12-13T16:30:16.699Z,100905.92
2018-12-13T16:32:44.270Z,100912.67
2018-12-13T16:35:11.960Z,100907.75
2018-12-13T16:37:39.547Z,100909.30
2018-12-13T16:40:10.363Z,100916.66
2018-12-13T16:42:37.014Z,100914.70
2018-12-13T16:45:05.304Z,100917.53
2018-12-13T16:47:32.864Z,100917.73
2018-12-13T16:50:00.457Z,100913.62
2018-12-13T16:52:28.045Z,100913.05
2018-12-13T16:54:55.734Z,100909.78
2018-12-13T16:57:23.300Z,100910.80
2018-12-13T16:59:50.849Z,100903.77
2018-12-13T17:02:18.540Z,100907.85
2018-12-13T17:04:45.889Z,100899.80
2018-12-13T17:07:13.400Z,100899.91
2018-12-13T17:09:40.940Z,100899.56
2018-12-13T17:12:08.778Z,100898.40
2018-12-13T17:14:36.504Z,100898.37
2018-12-13T17:17:04.419Z,100905.83
2018-12-13T17:19:32.132Z,100902.02
2018-12-13T17:21:59.981Z,100901.63
2018-12-13T17:24:27.657Z,100910.02
2018-12-13T17:26:55.463Z,100905.58
2018-12-13T17:29:23.096Z,100898.98
2018-12-13T17:31:50.669Z,100897.50
2018-12-13T17:34:18.344Z,100899.95
2018-12-13T17:36:45.969Z,100889.50
2018-12-13T17:39:13.730Z,100899.47
2018-12-13T17:41:41.656Z,100903.28
2018-12-13T17:44:09.476Z,100899.17
2018-12-13T17:46:36.912Z,100903.66
2018-12-13T17:49:04.484Z,100914.02
2018-12-13T17:51:31.908Z,100903.52
2018-12-13T17:53:59.608Z,100896.48
2018-12-13T17:56:27.278Z,100909.63
2018-12-13T17:58:54.960Z,100912.03
2018-12-13T18:01:22.644Z,100914.59
2018-12-13T18:03:50.787Z,100919.22
2018-12-13T18:06:18.440Z,100920.42
2018-12-13T18:08:46.036Z,100915.41
2018-12-13T18:11:13.691Z,100915.27
2018-12-13T18:13:41.304Z,100917.34
2018-12-13T18:16:08.889Z,100913.19
2018-12-13T18:18:36.496Z,100916.52
2018-12-13T18:21:04.331Z,100916.91
2018-12-13T18:23:31.835Z,100924.95
2018-12-13T18:25:59.492Z,100918.11
2018-12-13T18:28:27.176Z,100919.95
2018-12-13T18:30:54.906Z,100922.69
2018-12-13T18:33:22.342Z,100921.38
2018-12-13T18:35:49.944Z,100917.53
2018-12-13T18:38:17.680Z,100927.36
2018-12-13T18:40:45.244Z,100922.79
2018-12-13T18:43:13.093Z,100922.53
2018-12-13T18:45:40.740Z,100920.51
2018-12-13T18:48:08.354Z,100920.70
2018-12-13T18:50:35.768Z,100921.00
2018-12-13T18:53:03.542Z,100927.16
2018-12-13T18:55:31.406Z,100920.42
2018-12-13T18:57:59.093Z,100937.81
2018-12-13T19:00:26.644Z,100939.36
2018-12-13T19:02:54.422Z,100921.00
2018-12-13T19:05:22.216Z,100926.69
2018-12-13T19:07:49.864Z,100921.77
2018-12-13T19:10:17.700Z,100927.34
2018-12-13T19:12:45.231Z,100943.31
2018-12-13T19:15:12.700Z,100939.78
2018-12-13T19:17:40.312Z,100936.25
2018-12-13T19:20:08.734Z,100939.67
2018-12-13T19:22:36.586Z,100938.13
2018-12-13T19:25:05.892Z,100938.04
2018-12-13T19:27:33.486Z,100936.66
2018-12-13T19:30:01.120Z,100938.02
2018-12-13T19:32:28.856Z,100929.98
2018-12-13T19:35:00.251Z,100931.20
2018-12-13T19:37:28.293Z,100930.38
2018-12-13T19:39:55.875Z,100926.62
2018-12-13T19:42:23.543Z,100928.59
2018-12-13T19:44:51.171Z,100923.40
2018-12-13T19:47:19.179Z,100937.91
2018-12-13T19:49:48.356Z,100930.39
2018-12-13T19:52:16.129Z,100943.58
2018-12-13T19:54:43.765Z,100938.01
2018-12-13T19:57:11.825Z,100934.09
2018-12-13T19:59:39.800Z,100941.28
2018-12-13T20:02:07.697Z,100945.03
2018-12-13T20:04:35.399Z,100947.34
2018-12-13T20:07:03.179Z,100941.34
2018-12-13T20:09:30.857Z,100948.28
2018-12-13T20:11:58.558Z,100957.86
2018-12-13T20:14:26.169Z,100949.67
2018-12-13T20:16:54.346Z,100953.84
2018-12-13T20:19:22.047Z,100955.59
2018-12-13T20:21:49.685Z,100961.53
2018-12-13T20:24:17.493Z,100948.08
2018-12-13T20:26:45.377Z,100959.44
2018-12-13T20:29:13.542Z,100962.03
2018-12-13T20:31:41.095Z,100973.23
2018-12-13T20:34:08.792Z,100973.17
2018-12-13T20:36:36.462Z,100962.95
2018-12-13T20:39:08.040Z,100964.18
2018-12-13T20:41:36.700Z,100965.66
2018-12-13T20:44:04.079Z,100967.06
2018-12-13T20:46:32.006Z,100966.00
2018-12-13T20:48:59.669Z,100981.18
2018-12-13T20:51:27.978Z,100974.81
2018-12-13T20:53:55.867Z,100983.91
2018-12-13T20:56:23.533Z,100978.84
2018-12-13T20:58:51.106Z,100993.02
2018-12-13T21:01:18.826Z,100992.33
2018-12-13T21:03:46.656Z,101000.25
2018-12-13T21:06:14.400Z,100992.39
2018-12-13T21:08:42.022Z,100996.05
2018-12-13T21:11:09.644Z,100994.33
2018-12-13T21:13:37.576Z,100992.13
2018-12-13T21:16:05.144Z,100995.06
2018-12-13T21:18:32.886Z,100997.88
2018-12-13T21:21:00.656Z,101001.78
2018-12-13T21:23:31.114Z,101003.59
2018-12-13T21:25:59.131Z,100995.17
2018-12-13T21:28:26.712Z,100994.33
2018-12-13T21:30:54.063Z,101001.83
2018-12-13T21:33:21.615Z,100998.96
2018-12-13T21:35:49.159Z,100997.44
2018-12-13T21:38:16.972Z,100992.80
2018-12-13T21:40:44.719Z,100989.17
2018-12-13T21:43:12.355Z,100994.67
2018-12-13T21:45:39.708Z,100986.00
2018-12-13T21:48:07.372Z,100986.91
2018-12-13T21:50:34.770Z,100994.53
2018-12-13T21:53:02.396Z,100991.66
2018-12-13T21:55:30.046Z,100982.49
2018-12-13T21:57:57.647Z,100982.09
2018-12-13T22:00:25.409Z,100978.76
2018-12-13T22:02:53.299Z,100977.42
2018-12-13T22:05:20.873Z,100973.00
2018-12-13T22:07:48.621Z,100971.88
2018-12-13T22:10:16.323Z,100976.39
2018-12-13T22:12:43.799Z,100971.75
2018-12-13T22:15:11.998Z,100976.73
2018-12-13T22:17:39.492Z,100971.27
2018-12-13T22:20:07.450Z,100982.10
2018-12-13T22:22:35.069Z,100990.23
2018-12-13T22:25:02.846Z,100982.79
2018-12-13T22:27:30.423Z,100983.88
2018-12-13T22:29:58.022Z,100990.60
2018-12-13T22:32:25.609Z,100979.73
2018-12-13T22:34:53.337Z,100982.16
2018-12-13T22:37:21.062Z,100993.69
2018-12-13T22:39:48.921Z,100994.25
2018-12-13T22:42:16.509Z,101002.86
2018-12-13T22:44:44.155Z,101006.12
2018-12-13T22:47:11.773Z,100989.47
2018-12-13T22:49:39.617Z,101001.09
2018-12-13T22:52:07.159Z,101000.09
2018-12-13T22:54:34.737Z,101007.75
2018-12-13T22:57:02.295Z,101008.39
2018-12-13T22:59:29.925Z,101014.09
2018-12-13T23:01:57.571Z,101001.90
2018-12-13T23:04:25.715Z,101023.19
2018-12-13T23:06:53.516Z,101015.73
2018-12-13T23:09:21.349Z,101012.45
2018-12-13T23:11:48.965Z,101008.94
2018-12-13T23:14:16.660Z,100999.36
2018-12-13T23:16:44.405Z,101001.44
2018-12-13T23:19:12.081Z,101002.39
2018-12-13T23:21:39.797Z,100997.71
2018-12-13T23:24:07.590Z,100994.20
2018-12-13T23:26:35.167Z,100994.16
2018-12-13T23:29:02.765Z,100994.77
2018-12-13T23:31:30.341Z,100986.62
2018-12-13T23:33:58.000Z,100993.30
2018-12-13T23:36:25.715Z,100989.73
2018-12-13T23:38:53.548Z,100999.47
2018-12-13T23:41:20.877Z,100996.18
2018-12-13T23:43:48.483Z,100996.28
2018-12-13T23:46:15.879Z,101010.83
2018-12-13T23:48:43.610Z,101001.66
2018-12-13T23:51:11.293Z,100997.66
2018-12-13T23:53:39.051Z,101004.65
2018-12-13T23:56:06.941Z,101007.42
2018-12-13T23:58:34.796Z,101016.94
